createdAt,value
2024-05-09T00:10:07.148Z,73.03
2024-05-09T00:16:35.419Z,72.42
2024-05-09T00:23:05.481Z,72.24
2024-05-09T00:26:07.377Z,72.57
2024-05-09T00:29:12.416Z,73.44
2024-05-09T00:32:17.130Z,74.45
2024-05-09T00:45:25.988Z,71.88
2024-05-09T00:48:30.752Z,72.90
2024-05-09T00:54:54.854Z,72.99
2024-05-09T01:01:20.922Z,73.55
2024-05-09T01:04:25.939Z,73.36
2024-05-09T01:10:49.117Z,72.65
2024-05-09T01:17:15.545Z,72.03
2024-05-09T01:23:38.226Z,74.40
2024-05-09T01:26:40.386Z,74.17
2024-05-09T01:29:44.236Z,70.57
2024-05-09T01:32:46.200Z,68.87
2024-05-09T01:39:10.906Z,66.29
2024-05-09T01:42:12.759Z,64.71
2024-05-09T01:45:15.045Z,63.72
2024-05-09T01:48:18.469Z,63.04
2024-05-09T01:51:21.565Z,62.74
2024-05-09T01:54:27.376Z,62.23
2024-05-09T02:00:52.105Z,61.05
2024-05-09T02:03:54.061Z,60.64
2024-05-09T02:06:55.798Z,59.76
2024-05-09T02:10:00.309Z,61.35
2024-05-09T02:13:02.154Z,59.42
2024-05-09T02:16:04.527Z,59.31
2024-05-09T02:19:26.458Z,60.76
2024-05-09T02:22:28.316Z,59.74
2024-05-09T02:25:33.603Z,59.47
2024-05-09T02:28:35.519Z,58.58
2024-05-09T02:31:39.598Z,58.81
2024-05-09T02:37:50.200Z,60.17
2024-05-09T02:40:54.792Z,59.97
2024-05-09T02:43:56.728Z,59.22
2024-05-09T02:46:59.678Z,59.86
2024-05-09T02:50:02.395Z,58.63
2024-05-09T02:53:05.365Z,58.17
2024-05-09T02:56:24.845Z,58.39
2024-05-09T02:59:45.960Z,57.62
2024-05-09T03:02:47.986Z,58.07
2024-05-09T03:08:52.477Z,57.71
2024-05-09T03:11:54.524Z,57.92
2024-05-09T03:15:01.023Z,57.19
2024-05-09T03:21:20.370Z,57.83
2024-05-09T03:24:22.372Z,57.79
2024-05-09T03:27:24.084Z,57.06
2024-05-09T03:30:39.904Z,56.68
2024-05-09T03:33:45.032Z,57.63
2024-05-09T03:36:51.651Z,57.23
2024-05-09T03:40:02.907Z,57.61
2024-05-09T03:43:07.195Z,57.45
2024-05-09T03:46:12.585Z,57.76
2024-05-09T03:49:15.027Z,57.84
2024-05-09T03:52:17.789Z,57.24
2024-05-09T03:55:19.988Z,57.58
2024-05-09T03:58:25.790Z,57.29
2024-05-09T04:01:30.474Z,58.01
2024-05-09T04:04:35.212Z,58.53
2024-05-09T04:07:37.979Z,57.57
2024-05-09T04:10:40.982Z,57.94
2024-05-09T04:13:43.095Z,58.31
2024-05-09T04:16:47.650Z,57.92
2024-05-09T04:19:49.542Z,58.32
2024-05-09T04:22:51.535Z,58.38
2024-05-09T04:25:53.628Z,58.86
2024-05-09T04:28:55.582Z,58.77
2024-05-09T04:35:15.548Z,58.70
2024-05-09T04:38:17.271Z,59.31
2024-05-09T04:41:19.980Z,59.33
2024-05-09T04:44:21.894Z,58.65
2024-05-09T04:47:27.011Z,58.58
2024-05-09T04:50:35.652Z,58.84
2024-05-09T04:53:40.404Z,59.23
2024-05-09T04:56:42.161Z,59.43
2024-05-09T04:59:49.452Z,58.82
2024-05-09T05:06:19.367Z,61.20
2024-05-09T05:09:21.332Z,60.73
2024-05-09T05:12:26.972Z,59.47
2024-05-09T05:15:29.298Z,60.41
2024-05-09T05:18:31.562Z,60.24
2024-05-09T05:21:35.893Z,61.17
2024-05-09T05:24:38.523Z,61.53
2024-05-09T05:27:41.113Z,61.57
2024-05-09T05:34:14.874Z,62.61
2024-05-09T05:37:19.442Z,63.06
2024-05-09T05:40:35.778Z,62.40
2024-05-09T05:43:40.434Z,62.51
2024-05-09T05:46:42.242Z,62.45
2024-05-09T05:49:44.241Z,62.90
2024-05-09T05:53:04.875Z,61.54
2024-05-09T05:56:10.172Z,62.45
2024-05-09T05:59:15.325Z,61.72
2024-05-09T06:02:17.756Z,61.95
2024-05-09T06:05:23.425Z,63.50
2024-05-09T06:11:43.791Z,61.50
2024-05-09T06:14:48.339Z,62.07
2024-05-09T06:17:50.386Z,62.52
2024-05-09T06:24:09.491Z,61.99
2024-05-09T06:27:11.367Z,61.11
2024-05-09T06:30:25.774Z,62.25
2024-05-09T06:33:33.201Z,60.83
2024-05-09T06:36:42.124Z,60.82
2024-05-09T06:42:52.571Z,60.31
2024-05-09T06:45:56.995Z,60.08
2024-05-09T06:52:23.594Z,60.48
2024-05-09T06:55:25.454Z,60.63
2024-05-09T06:58:27.285Z,61.08
2024-05-09T07:01:32.164Z,61.98
2024-05-09T07:04:35.342Z,61.86
2024-05-09T07:07:40.266Z,61.44
2024-05-09T07:10:42.989Z,62.02
2024-05-09T07:13:45.108Z,62.15
2024-05-09T07:20:03.091Z,61.42
2024-05-09T07:29:44.519Z,59.55
2024-05-09T07:32:49.420Z,59.39
2024-05-09T07:35:56.522Z,60.06
2024-05-09T07:38:58.400Z,59.62
2024-05-09T07:42:00.884Z,59.39
2024-05-09T07:45:21.247Z,59.44
2024-05-09T07:54:56.830Z,59.71
2024-05-09T07:57:59.997Z,61.39
2024-05-09T08:07:52.087Z,59.64
2024-05-09T08:10:54.157Z,60.26
2024-05-09T08:16:58.573Z,59.77
2024-05-09T08:20:01.012Z,59.99
2024-05-09T08:23:07.279Z,60.14
2024-05-09T08:26:09.141Z,60.01
2024-05-09T08:29:10.762Z,60.89
2024-05-09T08:32:15.798Z,60.24
2024-05-09T08:35:17.626Z,61.95
2024-05-09T08:38:26.723Z,60.43
2024-05-09T08:41:31.280Z,61.03
2024-05-09T08:47:40.602Z,61.90
2024-05-09T08:50:45.401Z,62.32
2024-05-09T08:53:51.842Z,62.76
2024-05-09T08:56:54.046Z,63.55
2024-05-09T09:03:29.456Z,63.38
2024-05-09T09:06:34.996Z,63.34
2024-05-09T09:09:48.591Z,64.03
2024-05-09T09:12:55.342Z,63.93
2024-05-09T09:19:11.273Z,63.73
2024-05-09T09:25:18.820Z,64.49
2024-05-09T09:28:23.252Z,65.29
2024-05-09T09:31:25.751Z,65.83
2024-05-09T09:34:28.073Z,67.21
2024-05-09T09:37:34.376Z,68.08
2024-05-09T09:40:49.119Z,67.93
2024-05-09T09:43:53.604Z,68.05
2024-05-09T09:46:57.011Z,68.54
2024-05-09T09:50:02.327Z,69.07
2024-05-09T09:53:07.138Z,68.67
2024-05-09T09:56:15.862Z,68.61
2024-05-09T09:59:18.147Z,68.76
2024-05-09T10:02:20.490Z,67.55
2024-05-09T10:05:24.496Z,67.31
2024-05-09T10:08:27.257Z,67.71
2024-05-09T10:11:37.028Z,66.86
2024-05-09T10:14:48.023Z,67.91
2024-05-09T10:17:50.944Z,68.62
2024-05-09T10:24:07.241Z,68.02
2024-05-09T10:27:13.074Z,67.62
2024-05-09T10:33:55.906Z,70.15
2024-05-09T10:37:17.192Z,70.80
2024-05-09T10:40:25.880Z,70.61
2024-05-09T10:46:53.835Z,71.15
2024-05-09T10:49:56.397Z,71.06
2024-05-09T10:52:58.381Z,70.89
2024-05-09T10:59:15.258Z,71.90
2024-05-09T11:02:19.875Z,72.62
2024-05-09T11:05:23.362Z,70.59
2024-05-09T11:08:25.970Z,70.60
2024-05-09T11:11:29.081Z,71.75
2024-05-09T11:14:31.050Z,71.87
2024-05-09T11:17:40.259Z,72.12
2024-05-09T11:20:42.348Z,70.08
2024-05-09T11:23:44.569Z,70.23
2024-05-09T11:26:46.577Z,69.99
2024-05-09T11:29:48.383Z,69.96
2024-05-09T11:32:53.189Z,69.46
2024-05-09T11:35:55.286Z,69.78
2024-05-09T11:38:57.340Z,69.20
2024-05-09T11:42:02.339Z,69.68
2024-05-09T11:45:04.858Z,70.37
2024-05-09T11:48:11.553Z,69.63
2024-05-09T11:51:13.466Z,70.14
2024-05-09T11:54:15.629Z,68.52
2024-05-09T11:57:17.977Z,68.84
2024-05-09T12:00:29.154Z,69.02
2024-05-09T12:03:41.223Z,68.31
2024-05-09T12:06:43.559Z,69.45
2024-05-09T12:16:13.266Z,68.34
2024-05-09T12:19:18.028Z,67.84
2024-05-09T12:25:50.643Z,69.11
2024-05-09T12:29:04.763Z,69.67
2024-05-09T12:32:07.846Z,70.55
2024-05-09T12:35:12.474Z,70.91
2024-05-09T12:38:15.599Z,70.65
2024-05-09T12:41:17.653Z,68.56
2024-05-09T12:44:24.754Z,70.26
2024-05-09T12:47:49.982Z,70.85
2024-05-09T12:50:54.565Z,70.74
2024-05-09T12:53:56.488Z,71.42
2024-05-09T12:56:58.333Z,70.96
2024-05-09T13:03:32.468Z,71.40
2024-05-09T13:06:37.815Z,71.79
2024-05-09T13:12:51.666Z,72.67
2024-05-09T13:15:53.700Z,72.89
2024-05-09T13:18:55.865Z,71.87
2024-05-09T13:22:00.529Z,72.78
2024-05-09T13:25:16.875Z,71.51
2024-05-09T13:28:19.170Z,72.64
2024-05-09T13:31:22.337Z,71.81
2024-05-09T13:34:24.226Z,72.22
2024-05-09T13:37:28.903Z,70.93
2024-05-09T13:40:34.570Z,69.61
2024-05-09T13:43:38.166Z,69.31
2024-05-09T13:49:48.605Z,69.33
2024-05-09T13:56:07.922Z,67.83
2024-05-09T13:59:10.072Z,65.15
2024-05-09T14:02:12.122Z,65.43
2024-05-09T14:05:14.361Z,65.43
2024-05-09T14:08:20.564Z,62.83
2024-05-09T14:11:31.982Z,63.35
2024-05-09T14:14:41.819Z,64.32
2024-05-09T14:17:43.785Z,63.86
2024-05-09T14:20:45.637Z,62.94
2024-05-09T14:26:58.877Z,62.16
2024-05-09T14:33:09.526Z,61.46
2024-05-09T14:36:11.925Z,62.39
2024-05-09T14:42:33.449Z,61.57
2024-05-09T14:45:35.553Z,61.01
2024-05-09T14:48:51.884Z,62.32
2024-05-09T14:51:56.542Z,61.63
2024-05-09T14:55:00.637Z,60.62
2024-05-09T14:58:03.310Z,60.43
2024-05-09T15:01:10.995Z,59.89
2024-05-09T15:04:13.549Z,59.73
2024-05-09T15:07:33.012Z,59.08
2024-05-09T15:13:50.090Z,59.33
2024-05-09T15:16:53.503Z,57.66
2024-05-09T15:19:56.061Z,56.13
2024-05-09T15:22:58.408Z,54.15
2024-05-09T15:26:00.346Z,52.26
2024-05-09T15:29:04.876Z,52.64
2024-05-09T15:32:06.970Z,53.48
2024-05-09T15:35:08.828Z,54.93
2024-05-09T15:38:10.844Z,54.22
2024-05-09T15:41:13.229Z,55.09
2024-05-09T15:44:17.744Z,53.17
2024-05-09T15:47:21.011Z,52.40
2024-05-09T15:50:37.019Z,53.52
2024-05-09T15:53:42.241Z,52.84
2024-05-09T15:56:44.047Z,53.29
2024-05-09T16:03:14.216Z,54.95
2024-05-09T16:06:16.937Z,54.98
2024-05-09T16:09:18.935Z,52.87
2024-05-09T16:12:20.764Z,49.22
2024-05-09T16:15:25.298Z,47.34
2024-05-09T16:18:27.292Z,48.92
2024-05-09T16:21:29.177Z,50.94
2024-05-09T16:24:31.253Z,49.78
2024-05-09T16:27:33.171Z,49.97
2024-05-09T16:30:38.039Z,50.59
2024-05-09T16:33:40.249Z,48.86
2024-05-09T16:36:42.323Z,50.39
2024-05-09T16:39:44.223Z,48.24
2024-05-09T16:42:46.198Z,48.31
2024-05-09T16:45:50.930Z,48.80
2024-05-09T16:48:52.982Z,47.29
2024-05-09T16:51:54.948Z,47.25
2024-05-09T16:54:57.075Z,47.56
2024-05-09T16:57:59.394Z,47.94
2024-05-09T17:01:04.252Z,47.79
2024-05-09T17:04:06.387Z,47.97
2024-05-09T17:07:08.507Z,46.20
2024-05-09T17:10:19.100Z,45.79
2024-05-09T17:13:24.730Z,47.00
2024-05-09T17:16:29.639Z,46.66
2024-05-09T17:19:31.578Z,46.48
2024-05-09T17:22:33.571Z,46.24
2024-05-09T17:25:35.444Z,45.45
2024-05-09T17:28:37.500Z,46.82
2024-05-09T17:31:42.092Z,47.74
2024-05-09T17:34:43.976Z,47.79
2024-05-09T17:37:45.849Z,49.11
2024-05-09T17:40:47.911Z,50.58
2024-05-09T17:47:12.396Z,51.08
2024-05-09T17:53:25.064Z,51.05
2024-05-09T18:02:57.511Z,51.44
2024-05-09T18:05:59.611Z,50.68
2024-05-09T18:09:01.455Z,51.16
2024-05-09T18:12:03.734Z,50.97
2024-05-09T18:15:06.356Z,51.05
2024-05-09T18:18:28.427Z,51.79
2024-05-09T18:21:33.122Z,51.47
2024-05-09T18:24:35.111Z,52.04
2024-05-09T18:27:37.213Z,51.93
2024-05-09T18:30:40.579Z,52.13
2024-05-09T18:33:42.767Z,51.99
2024-05-09T18:36:47.542Z,53.19
2024-05-09T18:43:38.424Z,54.38
2024-05-09T18:46:46.545Z,54.44
2024-05-09T18:49:48.516Z,53.97
2024-05-09T18:52:53.033Z,54.54
2024-05-09T18:55:54.899Z,54.91
2024-05-09T18:58:56.667Z,55.75
2024-05-09T19:01:58.457Z,55.67
2024-05-09T19:05:00.654Z,56.50
2024-05-09T19:08:06.151Z,56.79
2024-05-09T19:11:08.137Z,56.81
2024-05-09T19:14:10.365Z,57.16
2024-05-09T19:17:12.215Z,57.77
2024-05-09T19:20:24.829Z,57.16
2024-05-09T19:23:38.046Z,57.27
2024-05-09T19:26:40.424Z,57.65
2024-05-09T19:29:42.267Z,57.26
2024-05-09T19:32:44.217Z,57.57
2024-05-09T19:35:46.130Z,57.48
2024-05-09T19:38:50.675Z,58.10
2024-05-09T19:41:52.542Z,58.99
2024-05-09T19:44:54.357Z,58.58
2024-05-09T19:47:56.734Z,59.20
2024-05-09T19:51:05.131Z,58.84
2024-05-09T19:54:09.584Z,59.68
2024-05-09T19:57:11.462Z,59.41
2024-05-09T20:00:21.472Z,60.51
2024-05-09T20:03:24.348Z,60.61
2024-05-09T20:09:44.136Z,60.06
2024-05-09T20:16:10.257Z,60.32
2024-05-09T20:19:12.516Z,60.51
2024-05-09T20:22:14.948Z,61.08
2024-05-09T20:25:22.880Z,61.84
2024-05-09T20:28:42.828Z,63.01
2024-05-09T20:34:54.439Z,62.42
2024-05-09T20:37:56.279Z,62.34
2024-05-09T20:41:00.552Z,62.37
2024-05-09T20:44:02.472Z,62.69
2024-05-09T20:47:07.103Z,62.94
2024-05-09T20:53:17.568Z,62.64
2024-05-09T20:56:41.633Z,62.61
2024-05-09T21:03:04.378Z,64.04
2024-05-09T21:06:06.360Z,64.39
2024-05-09T21:09:09.285Z,65.28
2024-05-09T21:15:29.121Z,64.56
2024-05-09T21:18:31.502Z,64.48
2024-05-09T21:21:39.190Z,64.75
2024-05-09T21:24:44.316Z,65.43
2024-05-09T21:27:46.764Z,66.37
2024-05-09T21:30:51.359Z,65.75
2024-05-09T21:33:54.111Z,66.51
2024-05-09T21:39:59.176Z,67.46
2024-05-09T21:43:01.585Z,68.46
2024-05-09T21:46:06.752Z,68.05
2024-05-09T21:52:22.185Z,66.25
2024-05-09T21:55:31.984Z,66.47
2024-05-09T21:58:48.455Z,65.32
2024-05-09T22:01:52.949Z,66.09
2024-05-09T22:05:01.296Z,66.51
2024-05-09T22:08:03.484Z,67.37
2024-05-09T22:11:06.391Z,67.61
2024-05-09T22:14:10.072Z,67.53
2024-05-09T22:17:16.154Z,66.80
2024-05-09T22:20:29.344Z,67.20
2024-05-09T22:23:38.638Z,66.65
2024-05-09T22:26:40.735Z,66.28
2024-05-09T22:29:42.637Z,66.66
2024-05-09T22:32:46.954Z,66.48
2024-05-09T22:35:48.949Z,66.50
2024-05-09T22:38:51.702Z,66.56
2024-05-09T22:41:53.529Z,67.66
2024-05-09T22:44:55.371Z,66.54
2024-05-09T22:48:00.222Z,67.27
2024-05-09T22:51:02.772Z,67.56
2024-05-09T22:54:05.069Z,68.18
2024-05-09T22:57:15.272Z,69.07
2024-05-09T23:00:21.676Z,68.42
2024-05-09T23:06:57.191Z,67.65
2024-05-09T23:09:59.092Z,67.59
2024-05-09T23:13:01.062Z,66.99
2024-05-09T23:16:03.451Z,67.69
2024-05-09T23:19:08.421Z,67.34
2024-05-09T23:25:27.732Z,67.70
2024-05-09T23:28:29.756Z,67.96
2024-05-09T23:31:31.808Z,68.10
2024-05-09T23:34:36.857Z,67.67
2024-05-09T23:37:39.168Z,67.29
2024-05-09T23:40:42.337Z,68.43
2024-05-09T23:47:03.069Z,66.77
2024-05-09T23:50:16.244Z,67.35
2024-05-09T23:53:22.209Z,67.87
2024-05-09T23:56:24.297Z,68.97
2024-05-09T23:59:34.831Z,68.20
